sensor_id;sensor_type;location;lat;lon;timestamp;pressure;altitude;pressure_sealevel;temperature;humidity
63970;BME280;50156;37.772;-122.432;2022-12-18T00:01:16;101186.57;;;14.29;100.00
63970;BME280;50156;37.772;-122.432;2022-12-18T00:03:46;101186.97;;;14.30;100.00
63970;BME280;50156;37.772;-122.432;2022-12-18T00:06:15;101181.68;;;14.07;100.00
63970;BME280;50156;37.772;-122.432;2022-12-18T00:08:45;101173.10;;;14.07;100.00
63970;BME280;50156;37.772;-122.432;2022-12-18T00:11:17;101173.27;;;13.71;100.00
63970;BME280;50156;37.772;-122.432;2022-12-18T00:13:47;101168.43;;;13.55;100.00
63970;BME280;50156;37.772;-122.432;2022-12-18T00:16:17;101164.72;;;13.12;100.00
63970;BME280;50156;37.772;-122.432;2022-12-18T00:18:48;101154.25;;;12.90;100.00
63970;BME280;50156;37.772;-122.432;2022-12-18T00:21:18;101139.08;;;12.72;100.00
63970;BME280;50156;37.772;-122.432;2022-12-18T00:23:48;101133.32;;;12.62;100.00
63970;BME280;50156;37.772;-122.432;2022-12-18T00:26:19;101126.12;;;12.41;100.00
63970;BME280;50156;37.772;-122.432;2022-12-18T00:28:48;101115.46;;;12.33;100.00
63970;BME280;50156;37.772;-122.432;2022-12-18T00:31:20;101105.26;;;12.27;100.00
63970;BME280;50156;37.772;-122.432;2022-12-18T00:33:50;101096.22;;;11.98;100.00
63970;BME280;50156;37.772;-122.432;2022-12-18T00:36:20;101082.82;;;11.98;100.00
63970;BME280;50156;37.772;-122.432;2022-12-18T00:38:50;101078.37;;;11.90;100.00
63970;BME280;50156;37.772;-122.432;2022-12-18T00:41:20;101075.16;;;11.87;100.00
63970;BME280;50156;37.772;-122.432;2022-12-18T00:43:49;101071.77;;;11.64;100.00
63970;BME280;50156;37.772;-122.432;2022-12-18T00:46:18;101064.63;;;11.63;100.00
63970;BME280;50156;37.772;-122.432;2022-12-18T00:48:46;101056.92;;;11.48;100.00
63970;BME280;50156;37.772;-122.432;2022-12-18T00:51:14;101046.01;;;11.38;100.00
63970;BME280;50156;37.772;-122.432;2022-12-18T00:53:43;101033.85;;;11.34;100.00
63970;BME280;50156;37.772;-122.432;2022-12-18T00:56:11;101020.92;;;11.26;100.00
63970;BME280;50156;37.772;-122.432;2022-12-18T00:58:39;101004.90;;;11.20;100.00
63970;BME280;50156;37.772;-122.432;2022-12-18T01:01:09;100990.88;;;11.09;100.00
63970;BME280;50156;37.772;-122.432;2022-12-18T01:03:38;100964.05;;;11.01;100.00
63970;BME280;50156;37.772;-122.432;2022-12-18T01:06:08;100936.05;;;10.92;100.00
63970;BME280;50156;37.772;-122.432;2022-12-18T01:08:37;100908.71;;;10.93;100.00
63970;BME280;50156;37.772;-122.432;2022-12-18T01:11:09;100873.74;;;10.81;100.00
63970;BME280;50156;37.772;-122.432;2022-12-18T01:13:38;100846.84;;;10.79;100.00
63970;BME280;50156;37.772;-122.432;2022-12-18T01:16:08;100821.00;;;10.75;100.00
63970;BME280;50156;37.772;-122.432;2022-12-18T01:18:39;100798.00;;;10.65;100.00
63970;BME280;50156;37.772;-122.432;2022-12-18T01:21:08;100782.16;;;10.63;100.00
63970;BME280;50156;37.772;-122.432;2022-12-18T01:23:38;100772.91;;;10.56;100.00
63970;BME280;50156;37.772;-122.432;2022-12-18T01:26:07;100763.54;;;10.57;100.00
63970;BME280;50156;37.772;-122.432;2022-12-18T01:28:36;100763.70;;;10.55;100.00
63970;BME280;50156;37.772;-122.432;2022-12-18T01:31:23;100761.56;;;10.49;100.00
63970;BME280;50156;37.772;-122.432;2022-12-18T01:33:53;100757.33;;;10.52;100.00
63970;BME280;50156;37.772;-122.432;2022-12-18T01:36:23;100751.02;;;10.39;100.00
63970;BME280;50156;37.772;-122.432;2022-12-18T01:38:54;100748.88;;;10.36;100.00
63970;BME280;50156;37.772;-122.432;2022-12-18T01:41:26;100750.04;;;10.37;100.00
63970;BME280;50156;37.772;-122.432;2022-12-18T01:43:57;100750.35;;;10.25;100.00
63970;BME280;50156;37.772;-122.432;2022-12-18T01:46:27;100756.48;;;10.30;100.00
63970;BME280;50156;37.772;-122.432;2022-12-18T01:48:57;100756.81;;;10.30;100.00
63970;BME280;50156;37.772;-122.432;2022-12-18T01:51:28;100762.02;;;10.30;100.00
63970;BME280;50156;37.772;-122.432;2022-12-18T01:53:59;100763.24;;;10.22;100.00
63970;BME280;50156;37.772;-122.432;2022-12-18T01:56:28;100767.93;;;10.20;100.00
63970;BME280;50156;37.772;-122.432;2022-12-18T01:58:58;100771.03;;;10.21;100.00
63970;BME280;50156;37.772;-122.432;2022-12-18T02:01:30;100774.21;;;10.15;100.00
63970;BME280;50156;37.772;-122.432;2022-12-18T02:04:20;100776.65;;;10.17;100.00
63970;BME280;50156;37.772;-122.432;2022-12-18T02:06:53;100776.21;;;10.12;100.00
63970;BME280;50156;37.772;-122.432;2022-12-18T02:09:27;100777.07;;;10.07;100.00
63970;BME280;50156;37.772;-122.432;2022-12-18T02:12:03;100780.96;;;10.07;100.00
63970;BME280;50156;37.772;-122.432;2022-12-18T02:14:39;100784.74;;;10.04;100.00
63970;BME280;50156;37.772;-122.432;2022-12-18T02:17:15;100784.07;;;9.93;100.00
63970;BME280;50156;37.772;-122.432;2022-12-18T02:19:58;100782.94;;;9.96;100.00
63970;BME280;50156;37.772;-122.432;2022-12-18T02:22:37;100782.82;;;9.91;100.00
63970;BME280;50156;37.772;-122.432;2022-12-18T02:25:20;100780.64;;;9.90;100.00
63970;BME280;50156;37.772;-122.432;2022-12-18T02:27:51;100779.27;;;9.92;100.00
63970;BME280;50156;37.772;-122.432;2022-12-18T02:30:21;100783.04;;;9.81;100.00
63970;BME280;50156;37.772;-122.432;2022-12-18T02:32:52;100783.95;;;9.71;100.00
63970;BME280;50156;37.772;-122.432;2022-12-18T02:35:25;100782.93;;;9.67;100.00
63970;BME280;50156;37.772;-122.432;2022-12-18T02:37:56;100779.79;;;9.55;100.00
63970;BME280;50156;37.772;-122.432;2022-12-18T02:40:27;100774.37;;;9.60;100.00
63970;BME280;50156;37.772;-122.432;2022-12-18T02:43:02;100770.29;;;9.60;100.00
63970;BME280;50156;37.772;-122.432;2022-12-18T02:45:31;100771.12;;;9.51;100.00
63970;BME280;50156;37.772;-122.432;2022-12-18T02:48:00;100768.02;;;9.50;100.00
63970;BME280;50156;37.772;-122.432;2022-12-18T02:50:34;100762.40;;;9.57;100.00
63970;BME280;50156;37.772;-122.432;2022-12-18T02:53:13;100763.10;;;9.51;100.00
63970;BME280;50156;37.772;-122.432;2022-12-18T02:55:58;100761.44;;;9.51;100.00
63970;BME280;50156;37.772;-122.432;2022-12-18T02:58:36;100760.98;;;9.52;100.00
63970;BME280;50156;37.772;-122.432;2022-12-18T03:01:13;100764.74;;;9.47;100.00
63970;BME280;50156;37.772;-122.432;2022-12-18T03:03:47;100767.45;;;9.42;100.00
63970;BME280;50156;37.772;-122.432;2022-12-18T03:06:23;100769.79;;;9.39;100.00
63970;BME280;50156;37.772;-122.432;2022-12-18T03:08:58;100769.80;;;9.38;100.00
63970;BME280;50156;37.772;-122.432;2022-12-18T03:11:28;100772.76;;;9.40;100.00
63970;BME280;50156;37.772;-122.432;2022-12-18T03:14:00;100776.16;;;9.39;100.00
63970;BME280;50156;37.772;-122.432;2022-12-18T03:16:31;100782.09;;;9.35;100.00
63970;BME280;50156;37.772;-122.432;2022-12-18T03:19:02;100779.20;;;9.37;100.00
63970;BME280;50156;37.772;-122.432;2022-12-18T03:21:36;100779.87;;;9.36;100.00
63970;BME280;50156;37.772;-122.432;2022-12-18T03:24:07;100783.31;;;9.32;100.00
63970;BME280;50156;37.772;-122.432;2022-12-18T03:26:40;100784.27;;;9.31;100.00
63970;BME280;50156;37.772;-122.432;2022-12-18T03:29:14;100785.09;;;9.26;100.00
63970;BME280;50156;37.772;-122.432;2022-12-18T03:31:53;100784.10;;;9.26;100.00
63970;BME280;50156;37.772;-122.432;2022-12-18T03:34:27;100781.18;;;9.17;100.00
63970;BME280;50156;37.772;-122.432;2022-12-18T03:36:57;100779.66;;;9.10;100.00
63970;BME280;50156;37.772;-122.432;2022-12-18T03:39:26;100777.77;;;9.07;100.00
63970;BME280;50156;37.772;-122.432;2022-12-18T03:41:58;100777.13;;;9.03;100.00
63970;BME280;50156;37.772;-122.432;2022-12-18T03:44:32;100777.12;;;9.00;100.00
63970;BME280;50156;37.772;-122.432;2022-12-18T03:47:09;100779.64;;;8.86;100.00
63970;BME280;50156;37.772;-122.432;2022-12-18T03:49:47;100778.18;;;8.85;100.00
63970;BME280;50156;37.772;-122.432;2022-12-18T03:52:23;100780.58;;;8.74;100.00
63970;BME280;50156;37.772;-122.432;2022-12-18T03:54:56;100781.77;;;8.69;100.00
63970;BME280;50156;37.772;-122.432;2022-12-18T03:57:28;100780.15;;;8.59;100.00
63970;BME280;50156;37.772;-122.432;2022-12-18T04:00:00;100776.29;;;8.61;100.00
63970;BME280;50156;37.772;-122.432;2022-12-18T04:02:31;100775.20;;;8.66;100.00
63970;BME280;50156;37.772;-122.432;2022-12-18T04:05:05;100774.12;;;8.47;100.00
63970;BME280;50156;37.772;-122.432;2022-12-18T04:07:35;100772.01;;;8.42;100.00
63970;BME280;50156;37.772;-122.432;2022-12-18T04:10:04;100775.34;;;8.34;100.00
63970;BME280;50156;37.772;-122.432;2022-12-18T04:12:36;100771.19;;;8.49;100.00
63970;BME280;50156;37.772;-122.432;2022-12-18T04:15:07;100773.05;;;8.56;100.00
63970;BME280;50156;37.772;-122.432;2022-12-18T04:17:36;100772.37;;;8.64;100.00
63970;BME280;50156;37.772;-122.432;2022-12-18T04:20:05;100771.04;;;8.61;100.00
63970;BME280;50156;37.772;-122.432;2022-12-18T04:22:34;100767.94;;;8.58;100.00
63970;BME280;50156;37.772;-122.432;2022-12-18T04:25:02;100767.24;;;8.54;100.00
63970;BME280;50156;37.772;-122.432;2022-12-18T04:27:32;100767.83;;;8.53;100.00
63970;BME280;50156;37.772;-122.432;2022-12-18T04:30:00;100766.43;;;8.49;100.00
63970;BME280;50156;37.772;-122.432;2022-12-18T04:32:29;100767.76;;;8.53;100.00
63970;BME280;50156;37.772;-122.432;2022-12-18T04:34:58;100768.01;;;8.58;100.00
63970;BME280;50156;37.772;-122.432;2022-12-18T04:37:27;100771.64;;;8.59;100.00
63970;BME280;50156;37.772;-122.432;2022-12-18T04:39:56;100773.31;;;8.59;100.00
63970;BME280;50156;37.772;-122.432;2022-12-18T04:42:23;100774.20;;;8.65;100.00
63970;BME280;50156;37.772;-122.432;2022-12-18T04:44:52;100772.47;;;8.63;100.00
63970;BME280;50156;37.772;-122.432;2022-12-18T04:47:21;100775.23;;;8.59;100.00
63970;BME280;50156;37.772;-122.432;2022-12-18T04:49:50;100774.01;;;8.51;100.00
63970;BME280;50156;37.772;-122.432;2022-12-18T04:52:18;100771.55;;;8.55;100.00
63970;BME280;50156;37.772;-122.432;2022-12-18T04:54:47;100771.64;;;8.52;100.00
63970;BME280;50156;37.772;-122.432;2022-12-18T04:57:15;100774.58;;;8.56;100.00
63970;BME280;50156;37.772;-122.432;2022-12-18T04:59:44;100775.31;;;8.51;100.00
63970;BME280;50156;37.772;-122.432;2022-12-18T05:02:13;100775.14;;;8.48;100.00
63970;BME280;50156;37.772;-122.432;2022-12-18T05:04:41;100778.29;;;8.45;100.00
63970;BME280;50156;37.772;-122.432;2022-12-18T05:07:09;100778.03;;;8.48;100.00
63970;BME280;50156;37.772;-122.432;2022-12-18T05:09:38;100779.68;;;8.52;100.00
63970;BME280;50156;37.772;-122.432;2022-12-18T05:12:07;100778.66;;;8.47;100.00
63970;BME280;50156;37.772;-122.432;2022-12-18T05:14:35;100779.93;;;8.46;100.00
63970;BME280;50156;37.772;-122.432;2022-12-18T05:17:04;100780.27;;;8.39;100.00
63970;BME280;50156;37.772;-122.432;2022-12-18T05:19:33;100784.13;;;8.30;100.00
63970;BME280;50156;37.772;-122.432;2022-12-18T05:22:01;100784.44;;;8.30;100.00
63970;BME280;50156;37.772;-122.432;2022-12-18T05:24:30;100786.11;;;8.19;100.00
63970;BME280;50156;37.772;-122.432;2022-12-18T05:26:59;100788.32;;;8.16;100.00
63970;BME280;50156;37.772;-122.432;2022-12-18T05:29:28;100787.87;;;8.14;100.00
63970;BME280;50156;37.772;-122.432;2022-12-18T05:31:56;100787.82;;;8.18;100.00
63970;BME280;50156;37.772;-122.432;2022-12-18T05:34:24;100783.53;;;8.21;100.00
63970;BME280;50156;37.772;-122.432;2022-12-18T05:36:52;100788.60;;;8.09;100.00
63970;BME280;50156;37.772;-122.432;2022-12-18T05:39:21;100789.66;;;8.09;100.00
63970;BME280;50156;37.772;-122.432;2022-12-18T05:41:49;100790.23;;;8.12;100.00
63970;BME280;50156;37.772;-122.432;2022-12-18T05:44:18;100787.66;;;8.26;100.00
63970;BME280;50156;37.772;-122.432;2022-12-18T05:46:46;100783.89;;;8.21;100.00
63970;BME280;50156;37.772;-122.432;2022-12-18T05:49:14;100781.75;;;8.13;100.00
63970;BME280;50156;37.772;-122.432;2022-12-18T05:51:43;100778.32;;;8.05;100.00
63970;BME280;50156;37.772;-122.432;2022-12-18T05:54:12;100774.63;;;8.09;100.00
63970;BME280;50156;37.772;-122.432;2022-12-18T05:56:41;100772.08;;;8.06;100.00
63970;BME280;50156;37.772;-122.432;2022-12-18T05:59:09;100769.34;;;8.08;100.00
63970;BME280;50156;37.772;-122.432;2022-12-18T06:01:37;100773.37;;;8.01;100.00
63970;BME280;50156;37.772;-122.432;2022-12-18T06:04:06;100772.78;;;7.98;100.00
63970;BME280;50156;37.772;-122.432;2022-12-18T06:06:35;100768.32;;;8.01;100.00
63970;BME280;50156;37.772;-122.432;2022-12-18T06:09:04;100769.51;;;7.97;100.00
63970;BME280;50156;37.772;-122.432;2022-12-18T06:11:33;100775.13;;;7.87;100.00
63970;BME280;50156;37.772;-122.432;2022-12-18T06:14:02;100774.34;;;7.83;100.00
63970;BME280;50156;37.772;-122.432;2022-12-18T06:16:31;100775.63;;;7.92;100.00
63970;BME280;50156;37.772;-122.432;2022-12-18T06:19:02;100777.51;;;7.93;100.00
63970;BME280;50156;37.772;-122.432;2022-12-18T06:21:32;100777.17;;;7.87;100.00
63970;BME280;50156;37.772;-122.432;2022-12-18T06:24:01;100771.81;;;7.84;100.00
63970;BME280;50156;37.772;-122.432;2022-12-18T06:26:30;100770.04;;;7.88;100.00
63970;BME280;50156;37.772;-122.432;2022-12-18T06:28:58;100771.84;;;7.85;100.00
63970;BME280;50156;37.772;-122.432;2022-12-18T06:31:27;100774.30;;;7.89;100.00
63970;BME280;50156;37.772;-122.432;2022-12-18T06:33:55;100774.53;;;7.91;100.00
63970;BME280;50156;37.772;-122.432;2022-12-18T06:36:24;100775.30;;;7.88;100.00
63970;BME280;50156;37.772;-122.432;2022-12-18T06:38:52;100777.16;;;7.85;100.00
63970;BME280;50156;37.772;-122.432;2022-12-18T06:41:22;100776.85;;;7.79;100.00
63970;BME280;50156;37.772;-122.432;2022-12-18T06:43:51;100780.06;;;7.77;100.00
63970;BME280;50156;37.772;-122.432;2022-12-18T06:46:19;100780.74;;;7.78;100.00
63970;BME280;50156;37.772;-122.432;2022-12-18T06:48:49;100780.93;;;7.80;100.00
63970;BME280;50156;37.772;-122.432;2022-12-18T06:51:20;100780.99;;;7.79;100.00
63970;BME280;50156;37.772;-122.432;2022-12-18T06:53:49;100781.49;;;7.78;100.00
63970;BME280;50156;37.772;-122.432;2022-12-18T06:56:18;100780.88;;;7.75;100.00
63970;BME280;50156;37.772;-122.432;2022-12-18T06:58:47;100781.56;;;7.73;100.00
63970;BME280;50156;37.772;-122.432;2022-12-18T07:01:15;100779.89;;;7.68;100.00
63970;BME280;50156;37.772;-122.432;2022-12-18T07:03:44;100781.98;;;7.56;100.00
63970;BME280;50156;37.772;-122.432;2022-12-18T07:06:15;100785.31;;;7.58;100.00
63970;BME280;50156;37.772;-122.432;2022-12-18T07:08:44;100785.64;;;7.56;100.00
63970;BME280;50156;37.772;-122.432;2022-12-18T07:11:14;100785.48;;;7.53;100.00
63970;BME280;50156;37.772;-122.432;2022-12-18T07:13:43;100785.12;;;7.55;100.00
63970;BME280;50156;37.772;-122.432;2022-12-18T07:16:13;100783.34;;;7.51;100.00
63970;BME280;50156;37.772;-122.432;2022-12-18T07:18:43;100783.44;;;7.44;100.00
63970;BME280;50156;37.772;-122.432;2022-12-18T07:21:13;100784.21;;;7.38;100.00
63970;BME280;50156;37.772;-122.432;2022-12-18T07:23:42;100782.86;;;7.38;100.00
63970;BME280;50156;37.772;-122.432;2022-12-18T07:26:13;100779.49;;;7.38;100.00
63970;BME280;50156;37.772;-122.432;2022-12-18T07:28:43;100780.56;;;7.24;100.00
63970;BME280;50156;37.772;-122.432;2022-12-18T07:31:13;100783.14;;;7.17;100.00
63970;BME280;50156;37.772;-122.432;2022-12-18T07:33:43;100783.77;;;7.25;100.00
63970;BME280;50156;37.772;-122.432;2022-12-18T07:36:12;100784.04;;;7.21;100.00
63970;BME280;50156;37.772;-122.432;2022-12-18T07:38:41;100785.38;;;7.16;100.00
63970;BME280;50156;37.772;-122.432;2022-12-18T07:41:10;100780.24;;;7.15;100.00
63970;BME280;50156;37.772;-122.432;2022-12-18T07:43:40;100780.80;;;7.19;100.00
63970;BME280;50156;37.772;-122.432;2022-12-18T07:46:10;100776.80;;;7.18;100.00
63970;BME280;50156;37.772;-122.432;2022-12-18T07:48:39;100775.86;;;7.19;100.00
63970;BME280;50156;37.772;-122.432;2022-12-18T07:51:07;100778.95;;;7.10;100.00
63970;BME280;50156;37.772;-122.432;2022-12-18T07:53:36;100775.44;;;7.08;100.00
63970;BME280;50156;37.772;-122.432;2022-12-18T07:56:07;100777.99;;;7.05;100.00
63970;BME280;50156;37.772;-122.432;2022-12-18T07:58:37;100780.38;;;7.11;100.00
63970;BME280;50156;37.772;-122.432;2022-12-18T08:01:06;100784.53;;;6.95;100.00
63970;BME280;50156;37.772;-122.432;2022-12-18T08:03:36;100783.25;;;7.05;100.00
63970;BME280;50156;37.772;-122.432;2022-12-18T08:06:08;100782.23;;;6.95;100.00
63970;BME280;50156;37.772;-122.432;2022-12-18T08:08:37;100777.99;;;6.91;100.00
63970;BME280;50156;37.772;-122.432;2022-12-18T08:11:05;100770.58;;;6.97;100.00
63970;BME280;50156;37.772;-122.432;2022-12-18T08:13:34;100766.09;;;7.06;100.00
63970;BME280;50156;37.772;-122.432;2022-12-18T08:16:05;100765.31;;;6.93;100.00
63970;BME280;50156;37.772;-122.432;2022-12-18T08:18:35;100767.74;;;6.90;100.00
63970;BME280;50156;37.772;-122.432;2022-12-18T08:21:12;100774.22;;;6.82;100.00
63970;BME280;50156;37.772;-122.432;2022-12-18T08:23:42;100771.39;;;6.88;100.00
63970;BME280;50156;37.772;-122.432;2022-12-18T08:26:11;100771.76;;;6.82;100.00
63970;BME280;50156;37.772;-122.432;2022-12-18T08:28:40;100774.34;;;6.67;100.00
63970;BME280;50156;37.772;-122.432;2022-12-18T08:31:09;100770.18;;;6.77;100.00
63970;BME280;50156;37.772;-122.432;2022-12-18T08:33:38;100771.05;;;6.70;100.00
63970;BME280;50156;37.772;-122.432;2022-12-18T08:36:09;100771.76;;;6.59;100.00
63970;BME280;50156;37.772;-122.432;2022-12-18T08:38:38;100769.72;;;6.71;100.00
63970;BME280;50156;37.772;-122.432;2022-12-18T08:41:09;100771.27;;;6.66;100.00
63970;BME280;50156;37.772;-122.432;2022-12-18T08:43:38;100773.67;;;6.63;100.00
63970;BME280;50156;37.772;-122.432;2022-12-18T08:46:07;100772.68;;;6.63;100.00
63970;BME280;50156;37.772;-122.432;2022-12-18T08:48:36;100773.19;;;6.71;100.00
63970;BME280;50156;37.772;-122.432;2022-12-18T08:51:05;100773.34;;;6.76;100.00
63970;BME280;50156;37.772;-122.432;2022-12-18T08:53:33;100773.79;;;6.75;100.00
63970;BME280;50156;37.772;-122.432;2022-12-18T08:56:02;100769.86;;;6.75;100.00
63970;BME280;50156;37.772;-122.432;2022-12-18T08:58:31;100773.31;;;6.71;100.00
63970;BME280;50156;37.772;-122.432;2022-12-18T09:01:01;100772.75;;;6.82;100.00
63970;BME280;50156;37.772;-122.432;2022-12-18T09:03:30;100775.52;;;6.74;100.00
63970;BME280;50156;37.772;-122.432;2022-12-18T09:05:59;100774.69;;;6.78;100.00
63970;BME280;50156;37.772;-122.432;2022-12-18T09:08:28;100778.73;;;6.75;100.00
63970;BME280;50156;37.772;-122.432;2022-12-18T09:10:57;100777.63;;;6.74;100.00
63970;BME280;50156;37.772;-122.432;2022-12-18T09:13:25;100783.84;;;6.75;100.00
63970;BME280;50156;37.772;-122.432;2022-12-18T09:15:55;100785.15;;;6.78;100.00
63970;BME280;50156;37.772;-122.432;2022-12-18T09:18:24;100786.62;;;6.82;100.00
63970;BME280;50156;37.772;-122.432;2022-12-18T09:20:53;100794.65;;;6.75;100.00
63970;BME280;50156;37.772;-122.432;2022-12-18T09:23:22;100795.67;;;6.77;100.00
63970;BME280;50156;37.772;-122.432;2022-12-18T09:25:50;100799.23;;;6.76;100.00
63970;BME280;50156;37.772;-122.432;2022-12-18T09:28:19;100799.42;;;6.87;100.00
63970;BME280;50156;37.772;-122.432;2022-12-18T09:30:49;100805.48;;;6.78;100.00
63970;BME280;50156;37.772;-122.432;2022-12-18T09:33:18;100807.59;;;6.89;100.00
63970;BME280;50156;37.772;-122.432;2022-12-18T09:35:47;100812.14;;;6.96;100.00
63970;BME280;50156;37.772;-122.432;2022-12-18T09:38:18;100814.26;;;6.91;100.00
63970;BME280;50156;37.772;-122.432;2022-12-18T09:40:49;100814.27;;;6.99;100.00
63970;BME280;50156;37.772;-122.432;2022-12-18T09:43:20;100813.85;;;6.99;100.00
63970;BME280;50156;37.772;-122.432;2022-12-18T09:45:53;100817.77;;;6.96;100.00
63970;BME280;50156;37.772;-122.432;2022-12-18T09:48:27;100818.99;;;6.98;100.00
63970;BME280;50156;37.772;-122.432;2022-12-18T09:51:00;100823.70;;;6.92;100.00
63970;BME280;50156;37.772;-122.432;2022-12-18T09:53:33;100822.20;;;6.96;100.00
63970;BME280;50156;37.772;-122.432;2022-12-18T09:56:04;100819.92;;;6.84;100.00
63970;BME280;50156;37.772;-122.432;2022-12-18T09:58:38;100821.60;;;6.95;100.00
63970;BME280;50156;37.772;-122.432;2022-12-18T10:01:12;100824.67;;;6.84;100.00
63970;BME280;50156;37.772;-122.432;2022-12-18T10:03:42;100827.43;;;6.77;100.00
63970;BME280;50156;37.772;-122.432;2022-12-18T10:06:15;100830.70;;;6.71;100.00
63970;BME280;50156;37.772;-122.432;2022-12-18T10:08:53;100835.59;;;6.74;100.00
63970;BME280;50156;37.772;-122.432;2022-12-18T10:11:34;100844.52;;;6.79;100.00
63970;BME280;50156;37.772;-122.432;2022-12-18T10:14:13;100854.69;;;6.77;100.00
63970;BME280;50156;37.772;-122.432;2022-12-18T10:16:56;100858.08;;;6.78;100.00
63970;BME280;50156;37.772;-122.432;2022-12-18T10:19:37;100862.72;;;6.79;100.00
63970;BME280;50156;37.772;-122.432;2022-12-18T10:22:16;100871.05;;;6.69;100.00
63970;BME280;50156;37.772;-122.432;2022-12-18T10:24:55;100876.84;;;6.61;100.00
63970;BME280;50156;37.772;-122.432;2022-12-18T10:27:28;100877.19;;;6.68;100.00
63970;BME280;50156;37.772;-122.432;2022-12-18T10:29:57;100879.42;;;6.60;100.00
63970;BME280;50156;37.772;-122.432;2022-12-18T10:32:29;100882.89;;;6.60;100.00
63970;BME280;50156;37.772;-122.432;2022-12-18T10:34:59;100884.74;;;6.64;100.00
63970;BME280;50156;37.772;-122.432;2022-12-18T10:37:29;100888.75;;;6.60;100.00
63970;BME280;50156;37.772;-122.432;2022-12-18T10:40:15;100897.18;;;6.52;100.00
63970;BME280;50156;37.772;-122.432;2022-12-18T10:42:44;100898.80;;;6.61;100.00
63970;BME280;50156;37.772;-122.432;2022-12-18T10:45:15;100903.39;;;6.53;100.00
63970;BME280;50156;37.772;-122.432;2022-12-18T10:47:46;100910.26;;;6.51;100.00
63970;BME280;50156;37.772;-122.432;2022-12-18T10:50:23;100916.31;;;6.53;100.00
63970;BME280;50156;37.772;-122.432;2022-12-18T10:52:57;100917.97;;;6.58;100.00
63970;BME280;50156;37.772;-122.432;2022-12-18T10:55:31;100920.63;;;6.54;100.00
63970;BME280;50156;37.772;-122.432;2022-12-18T10:58:19;100921.86;;;6.59;100.00
63970;BME280;50156;37.772;-122.432;2022-12-18T11:01:04;100925.30;;;6.56;100.00
63970;BME280;50156;37.772;-122.432;2022-12-18T11:03:36;100926.13;;;6.61;100.00
63970;BME280;50156;37.772;-122.432;2022-12-18T11:06:08;100932.11;;;6.61;100.00
63970;BME280;50156;37.772;-122.432;2022-12-18T11:08:38;100932.07;;;6.53;100.00
63970;BME280;50156;37.772;-122.432;2022-12-18T11:11:15;100928.69;;;6.55;100.00
63970;BME280;50156;37.772;-122.432;2022-12-18T11:13:57;100931.21;;;6.57;100.00
63970;BME280;50156;37.772;-122.432;2022-12-18T11:16:28;100928.29;;;6.53;100.00
63970;BME280;50156;37.772;-122.432;2022-12-18T11:19:13;100928.76;;;6.53;100.00
63970;BME280;50156;37.772;-122.432;2022-12-18T11:21:44;100927.13;;;6.33;100.00
63970;BME280;50156;37.772;-122.432;2022-12-18T11:24:22;100924.59;;;6.36;100.00
63970;BME280;50156;37.772;-122.432;2022-12-18T11:26:54;100923.83;;;6.40;100.00
63970;BME280;50156;37.772;-122.432;2022-12-18T11:29:28;100920.63;;;6.38;100.00
63970;BME280;50156;37.772;-122.432;2022-12-18T11:32:24;100919.39;;;6.39;100.00
63970;BME280;50156;37.772;-122.432;2022-12-18T11:35:00;100911.74;;;6.26;100.00
63970;BME280;50156;37.772;-122.432;2022-12-18T11:37:32;100905.31;;;6.14;100.00
63970;BME280;50156;37.772;-122.432;2022-12-18T11:40:06;100907.94;;;6.07;100.00
63970;BME280;50156;37.772;-122.432;2022-12-18T11:42:44;100908.88;;;6.08;100.00
63970;BME280;50156;37.772;-122.432;2022-12-18T11:45:26;100912.21;;;6.03;100.00
63970;BME280;50156;37.772;-122.432;2022-12-18T11:48:00;100918.91;;;5.84;100.00
63970;BME280;50156;37.772;-122.432;2022-12-18T11:50:41;100920.25;;;5.95;100.00
63970;BME280;50156;37.772;-122.432;2022-12-18T11:53:13;100922.41;;;5.97;100.00
63970;BME280;50156;37.772;-122.432;2022-12-18T11:55:56;100919.92;;;5.91;100.00
63970;BME280;50156;37.772;-122.432;2022-12-18T11:58:39;100919.94;;;6.00;100.00
63970;BME280;50156;37.772;-122.432;2022-12-18T12:01:17;100920.85;;;6.00;100.00
63970;BME280;50156;37.772;-122.432;2022-12-18T12:03:59;100921.67;;;6.04;100.00
63970;BME280;50156;37.772;-122.432;2022-12-18T12:06:38;100913.45;;;5.98;100.00
63970;BME280;50156;37.772;-122.432;2022-12-18T12:09:14;100913.41;;;6.05;100.00
63970;BME280;50156;37.772;-122.432;2022-12-18T12:11:53;100917.36;;;6.00;100.00
63970;BME280;50156;37.772;-122.432;2022-12-18T12:14:38;100914.57;;;6.09;100.00
63970;BME280;50156;37.772;-122.432;2022-12-18T12:17:17;100909.92;;;6.10;100.00
63970;BME280;50156;37.772;-122.432;2022-12-18T12:19:55;100908.57;;;6.15;100.00
63970;BME280;50156;37.772;-122.432;2022-12-18T12:22:33;100912.59;;;6.01;100.00
63970;BME280;50156;37.772;-122.432;2022-12-18T12:25:20;100913.80;;;6.10;100.00
63970;BME280;50156;37.772;-122.432;2022-12-18T12:27:57;100920.22;;;6.08;100.00
63970;BME280;50156;37.772;-122.432;2022-12-18T12:30:39;100920.09;;;6.14;100.00
63970;BME280;50156;37.772;-122.432;2022-12-18T12:33:17;100921.70;;;6.11;100.00
63970;BME280;50156;37.772;-122.432;2022-12-18T12:35:57;100924.80;;;6.03;100.00
63970;BME280;50156;37.772;-122.432;2022-12-18T12:38:33;100929.29;;;6.03;100.00
63970;BME280;50156;37.772;-122.432;2022-12-18T12:41:06;100929.26;;;5.90;100.00